createdAt,value
2022-11-11T00:00:00.000Z,10.71
2022-11-11T00:15:00.000Z,6.75
2022-11-11T00:30:00.000Z,5.72
2022-11-11T00:45:00.000Z,4.67
2022-11-11T01:00:00.000Z,4.25
2022-11-11T01:15:00.000Z,4.74
2022-11-11T01:30:00.000Z,6.23
2022-11-11T01:45:00.000Z,6.37
2022-11-11T02:00:00.000Z,6.2
2022-11-11T02:15:00.000Z,6.29
2022-11-11T02:30:00.000Z,4.27
2022-11-11T02:45:00.000Z,4.26
2022-11-11T03:00:00.000Z,4.26
2022-11-11T03:15:00.000Z,7.79
2022-11-11T03:30:00.000Z,15.87
2022-11-11T03:45:00.000Z,5.78
2022-11-11T04:00:00.000Z,4.94
2022-11-11T04:15:00.000Z,5.02
2022-11-11T04:30:00.000Z,4.8
2022-11-11T04:45:00.000Z,4.31
2022-11-11T05:00:00.000Z,3.34
2022-11-11T05:15:00.000Z,2.35
2022-11-11T05:30:00.000Z,2.16
2022-11-11T05:45:00.000Z,3.41
2022-11-11T06:00:00.000Z,4.63
2022-11-11T06:15:00.000Z,7.38
2022-11-11T06:30:00.000Z,14.77
2022-11-11T06:45:00.000Z,5.83
2022-11-11T07:00:00.000Z,6.24
2022-11-11T07:15:00.000Z,9.45
2022-11-11T07:30:00.000Z,5.57
2022-11-11T07:45:00.000Z,11.94
2022-11-11T08:00:00.000Z,7.02
2022-11-11T08:15:00.000Z,7.17
2022-11-11T08:30:00.000Z,4
2022-11-11T08:30:00.000Z,4
2022-11-11T08:30:00.000Z,4
2022-11-11T08:30:00.000Z,4
2022-11-11T09:30:00.000Z,1
2022-11-11T09:30:00.000Z,1
2022-11-11T09:30:00.000Z,1
2022-11-11T09:45:00.000Z,1
2022-11-11T09:45:00.000Z,1
2022-11-11T16:30:00.000Z,13
2022-11-11T16:45:00.000Z,13.88
2022-11-11T17:00:00.000Z,17.72
2022-11-11T17:15:00.000Z,22.42
2022-11-11T17:30:00.000Z,16.26
2022-11-11T17:45:00.000Z,29.2
2022-11-11T18:00:00.000Z,21.35
2022-11-11T18:15:00.000Z,21.76
2022-11-11T18:30:00.000Z,27.75
2022-11-11T18:45:00.000Z,19.2
2022-11-11T19:00:00.000Z,22.52
2022-11-11T19:15:00.000Z,23
2022-11-11T19:30:00.000Z,27.93
2022-11-11T19:45:00.000Z,28.36
2022-11-11T20:00:00.000Z,18.76
2022-11-11T20:15:00.000Z,19.68
2022-11-11T20:30:00.000Z,37.34
2022-11-11T20:45:00.000Z,26.28
2022-11-11T21:00:00.000Z,27.46
2022-11-11T21:15:00.000Z,22.75
2022-11-11T21:30:00.000Z,24.85
2022-11-11T21:45:00.000Z,23.34
2022-11-11T22:00:00.000Z,25.32
2022-11-11T22:15:00.000Z,20.67
2022-11-11T22:30:00.000Z,16.89
2022-11-11T22:45:00.000Z,13.18
2022-11-11T23:00:00.000Z,14.65
2022-11-11T23:15:00.000Z,22.14
2022-11-11T23:30:00.000Z,22.76
2022-11-11T23:45:00.000Z,23.52
